sensor_id;sensor_type;location;lat;lon;timestamp;P1;durP1;ratioP1;P2;durP2;ratioP2
71696;SDS011;59528;59.082;37.926;2022-09-24T00:01:58;1.57;;;0.70;;
71696;SDS011;59528;59.082;37.926;2022-09-24T00:04:24;3.03;;;0.53;;
71696;SDS011;59528;59.082;37.926;2022-09-24T00:06:50;1.80;;;0.40;;
71696;SDS011;59528;59.082;37.926;2022-09-24T00:09:17;1.23;;;0.40;;
71696;SDS011;59528;59.082;37.926;2022-09-24T00:11:43;0.37;;;0.30;;
71696;SDS011;59528;59.082;37.926;2022-09-24T00:14:10;0.30;;;0.30;;
71696;SDS011;59528;59.082;37.926;2022-09-24T00:16:37;1.73;;;0.40;;
71696;SDS011;59528;59.082;37.926;2022-09-24T00:19:03;3.47;;;0.50;;
71696;SDS011;59528;59.082;37.926;2022-09-24T00:21:30;0.70;;;0.50;;
71696;SDS011;59528;59.082;37.926;2022-09-24T00:23:57;1.83;;;0.50;;
71696;SDS011;59528;59.082;37.926;2022-09-24T00:26:23;1.67;;;0.50;;
71696;SDS011;59528;59.082;37.926;2022-09-24T00:29:09;1.17;;;0.50;;
71696;SDS011;59528;59.082;37.926;2022-09-24T00:31:34;0.80;;;0.60;;
71696;SDS011;59528;59.082;37.926;2022-09-24T00:34:00;1.70;;;0.40;;
71696;SDS011;59528;59.082;37.926;2022-09-24T00:36:26;0.43;;;0.40;;
71696;SDS011;59528;59.082;37.926;2022-09-24T00:38:52;1.33;;;0.50;;
71696;SDS011;59528;59.082;37.926;2022-09-24T00:41:19;3.03;;;0.60;;
71696;SDS011;59528;59.082;37.926;2022-09-24T00:43:45;0.73;;;0.40;;
71696;SDS011;59528;59.082;37.926;2022-09-24T00:48:41;0.50;;;0.40;;
71696;SDS011;59528;59.082;37.926;2022-09-24T00:51:07;2.33;;;0.50;;
71696;SDS011;59528;59.082;37.926;2022-09-24T00:53:34;1.80;;;0.43;;
71696;SDS011;59528;59.082;37.926;2022-09-24T00:55:59;1.10;;;0.57;;
71696;SDS011;59528;59.082;37.926;2022-09-24T00:58:27;1.90;;;0.50;;
71696;SDS011;59528;59.082;37.926;2022-09-24T01:00:55;0.30;;;0.30;;
71696;SDS011;59528;59.082;37.926;2022-09-24T01:03:23;1.77;;;0.77;;
71696;SDS011;59528;59.082;37.926;2022-09-24T01:05:48;0.77;;;0.40;;
71696;SDS011;59528;59.082;37.926;2022-09-24T01:08:15;1.30;;;0.43;;
71696;SDS011;59528;59.082;37.926;2022-09-24T01:15:44;2.33;;;0.40;;
71696;SDS011;59528;59.082;37.926;2022-09-24T01:18:19;0.93;;;0.50;;
71696;SDS011;59528;59.082;37.926;2022-09-24T01:20:50;1.63;;;0.50;;
71696;SDS011;59528;59.082;37.926;2022-09-24T01:23:29;1.27;;;0.60;;
71696;SDS011;59528;59.082;37.926;2022-09-24T01:31:29;0.40;;;0.40;;
71696;SDS011;59528;59.082;37.926;2022-09-24T01:33:58;2.40;;;0.37;;
71696;SDS011;59528;59.082;37.926;2022-09-24T01:36:26;0.83;;;0.30;;
71696;SDS011;59528;59.082;37.926;2022-09-24T01:38:52;1.00;;;0.60;;
71696;SDS011;59528;59.082;37.926;2022-09-24T01:41:18;1.80;;;0.40;;
71696;SDS011;59528;59.082;37.926;2022-09-24T01:43:48;0.73;;;0.37;;
71696;SDS011;59528;59.082;37.926;2022-09-24T01:46:14;1.17;;;0.30;;
71696;SDS011;59528;59.082;37.926;2022-09-24T01:48:43;1.53;;;0.43;;
71696;SDS011;59528;59.082;37.926;2022-09-24T01:51:13;0.53;;;0.47;;
71696;SDS011;59528;59.082;37.926;2022-09-24T01:53:45;1.27;;;0.40;;
71696;SDS011;59528;59.082;37.926;2022-09-24T01:59:15;4.80;;;0.50;;
71696;SDS011;59528;59.082;37.926;2022-09-24T02:01:49;1.13;;;0.40;;
71696;SDS011;59528;59.082;37.926;2022-09-24T02:04:18;2.00;;;0.53;;
71696;SDS011;59528;59.082;37.926;2022-09-24T02:06:55;2.07;;;0.60;;
71696;SDS011;59528;59.082;37.926;2022-09-24T02:09:33;1.17;;;0.50;;
71696;SDS011;59528;59.082;37.926;2022-09-24T02:12:01;1.70;;;0.50;;
71696;SDS011;59528;59.082;37.926;2022-09-24T02:14:27;2.53;;;0.40;;
71696;SDS011;59528;59.082;37.926;2022-09-24T02:16:55;3.60;;;1.27;;
71696;SDS011;59528;59.082;37.926;2022-09-24T02:19:24;1.00;;;0.60;;
71696;SDS011;59528;59.082;37.926;2022-09-24T02:21:51;2.40;;;0.40;;
71696;SDS011;59528;59.082;37.926;2022-09-24T02:24:24;1.53;;;0.50;;
71696;SDS011;59528;59.082;37.926;2022-09-24T02:26:54;1.00;;;0.43;;
71696;SDS011;59528;59.082;37.926;2022-09-24T02:29:20;1.70;;;0.40;;
71696;SDS011;59528;59.082;37.926;2022-09-24T02:31:46;1.17;;;0.60;;
71696;SDS011;59528;59.082;37.926;2022-09-24T02:34:15;1.77;;;0.67;;
71696;SDS011;59528;59.082;37.926;2022-09-24T02:36:48;2.73;;;0.50;;
71696;SDS011;59528;59.082;37.926;2022-09-24T02:39:17;2.30;;;0.70;;
71696;SDS011;59528;59.082;37.926;2022-09-24T02:41:44;3.03;;;0.73;;
71696;SDS011;59528;59.082;37.926;2022-09-24T02:44:12;2.53;;;0.60;;
71696;SDS011;59528;59.082;37.926;2022-09-24T02:46:38;2.00;;;0.60;;
71696;SDS011;59528;59.082;37.926;2022-09-24T02:49:06;0.60;;;0.50;;
71696;SDS011;59528;59.082;37.926;2022-09-24T02:51:31;3.17;;;0.70;;
71696;SDS011;59528;59.082;37.926;2022-09-24T02:54:00;7.57;;;1.00;;
71696;SDS011;59528;59.082;37.926;2022-09-24T02:56:26;1.63;;;0.80;;
71696;SDS011;59528;59.082;37.926;2022-09-24T02:58:52;1.97;;;1.00;;
71696;SDS011;59528;59.082;37.926;2022-09-24T03:01:18;2.00;;;1.10;;
71696;SDS011;59528;59.082;37.926;2022-09-24T03:03:44;2.43;;;0.83;;
71696;SDS011;59528;59.082;37.926;2022-09-24T03:06:10;1.23;;;0.80;;
71696;SDS011;59528;59.082;37.926;2022-09-24T03:08:38;1.80;;;0.83;;
71696;SDS011;59528;59.082;37.926;2022-09-24T03:11:03;4.63;;;0.93;;
71696;SDS011;59528;59.082;37.926;2022-09-24T03:13:29;0.73;;;0.57;;
71696;SDS011;59528;59.082;37.926;2022-09-24T03:15:54;1.30;;;0.90;;
71696;SDS011;59528;59.082;37.926;2022-09-24T03:18:20;0.80;;;0.50;;
71696;SDS011;59528;59.082;37.926;2022-09-24T03:20:55;1.33;;;0.70;;
71696;SDS011;59528;59.082;37.926;2022-09-24T03:23:21;3.90;;;0.87;;
71696;SDS011;59528;59.082;37.926;2022-09-24T03:25:47;2.30;;;0.70;;
71696;SDS011;59528;59.082;37.926;2022-09-24T03:28:15;4.73;;;0.90;;
71696;SDS011;59528;59.082;37.926;2022-09-24T03:30:42;1.33;;;0.90;;
71696;SDS011;59528;59.082;37.926;2022-09-24T03:35:58;1.83;;;0.93;;
71696;SDS011;59528;59.082;37.926;2022-09-24T03:38:24;2.07;;;0.90;;
71696;SDS011;59528;59.082;37.926;2022-09-24T03:40:50;1.43;;;1.00;;
71696;SDS011;59528;59.082;37.926;2022-09-24T03:43:16;1.63;;;0.90;;
71696;SDS011;59528;59.082;37.926;2022-09-24T03:45:41;1.77;;;1.03;;
71696;SDS011;59528;59.082;37.926;2022-09-24T03:48:07;1.80;;;0.90;;
71696;SDS011;59528;59.082;37.926;2022-09-24T03:50:35;1.63;;;1.00;;
71696;SDS011;59528;59.082;37.926;2022-09-24T03:53:01;1.87;;;1.00;;
71696;SDS011;59528;59.082;37.926;2022-09-24T03:55:27;2.10;;;1.03;;
71696;SDS011;59528;59.082;37.926;2022-09-24T03:57:52;2.47;;;0.93;;
71696;SDS011;59528;59.082;37.926;2022-09-24T04:00:18;1.60;;;0.87;;
71696;SDS011;59528;59.082;37.926;2022-09-24T04:02:43;2.40;;;1.00;;
71696;SDS011;59528;59.082;37.926;2022-09-24T04:05:09;2.87;;;1.07;;
71696;SDS011;59528;59.082;37.926;2022-09-24T04:07:34;1.90;;;1.00;;
71696;SDS011;59528;59.082;37.926;2022-09-24T04:10:00;2.57;;;1.00;;
71696;SDS011;59528;59.082;37.926;2022-09-24T04:12:25;6.40;;;1.10;;
71696;SDS011;59528;59.082;37.926;2022-09-24T04:14:51;2.23;;;1.30;;
71696;SDS011;59528;59.082;37.926;2022-09-24T04:17:20;3.53;;;1.33;;
71696;SDS011;59528;59.082;37.926;2022-09-24T04:19:45;3.20;;;0.90;;
71696;SDS011;59528;59.082;37.926;2022-09-24T04:22:10;2.80;;;1.47;;
71696;SDS011;59528;59.082;37.926;2022-09-24T04:24:36;4.77;;;1.03;;
71696;SDS011;59528;59.082;37.926;2022-09-24T04:27:02;2.23;;;1.00;;
71696;SDS011;59528;59.082;37.926;2022-09-24T04:29:27;3.67;;;1.00;;
71696;SDS011;59528;59.082;37.926;2022-09-24T04:31:53;1.40;;;0.90;;
71696;SDS011;59528;59.082;37.926;2022-09-24T04:34:19;2.10;;;1.27;;
71696;SDS011;59528;59.082;37.926;2022-09-24T04:36:45;1.33;;;1.13;;
71696;SDS011;59528;59.082;37.926;2022-09-24T04:39:11;4.50;;;1.30;;
71696;SDS011;59528;59.082;37.926;2022-09-24T04:41:37;2.93;;;1.20;;
71696;SDS011;59528;59.082;37.926;2022-09-24T04:44:02;3.57;;;1.00;;
71696;SDS011;59528;59.082;37.926;2022-09-24T04:46:29;3.90;;;1.00;;
71696;SDS011;59528;59.082;37.926;2022-09-24T04:48:57;4.13;;;1.20;;
71696;SDS011;59528;59.082;37.926;2022-09-24T04:51:26;3.80;;;1.30;;
71696;SDS011;59528;59.082;37.926;2022-09-24T04:53:51;2.37;;;1.30;;
71696;SDS011;59528;59.082;37.926;2022-09-24T04:56:17;3.83;;;1.17;;
71696;SDS011;59528;59.082;37.926;2022-09-24T04:58:43;4.27;;;1.47;;
71696;SDS011;59528;59.082;37.926;2022-09-24T05:01:09;3.27;;;1.00;;
71696;SDS011;59528;59.082;37.926;2022-09-24T05:03:34;3.20;;;1.80;;
71696;SDS011;59528;59.082;37.926;2022-09-24T05:06:00;3.10;;;1.10;;
71696;SDS011;59528;59.082;37.926;2022-09-24T05:08:28;1.27;;;1.00;;
71696;SDS011;59528;59.082;37.926;2022-09-24T05:10:53;3.07;;;1.20;;
71696;SDS011;59528;59.082;37.926;2022-09-24T05:13:19;2.50;;;1.07;;
71696;SDS011;59528;59.082;37.926;2022-09-24T05:15:45;6.30;;;1.50;;
71696;SDS011;59528;59.082;37.926;2022-09-24T05:18:11;2.60;;;1.10;;
71696;SDS011;59528;59.082;37.926;2022-09-24T05:20:37;2.37;;;1.10;;
71696;SDS011;59528;59.082;37.926;2022-09-24T05:23:02;3.33;;;1.50;;
71696;SDS011;59528;59.082;37.926;2022-09-24T05:25:29;4.90;;;1.20;;
71696;SDS011;59528;59.082;37.926;2022-09-24T05:27:54;2.23;;;1.10;;
71696;SDS011;59528;59.082;37.926;2022-09-24T05:30:21;3.37;;;1.00;;
71696;SDS011;59528;59.082;37.926;2022-09-24T05:32:47;2.60;;;0.97;;
71696;SDS011;59528;59.082;37.926;2022-09-24T05:35:19;6.63;;;1.20;;
71696;SDS011;59528;59.082;37.926;2022-09-24T05:37:45;1.40;;;0.93;;
71696;SDS011;59528;59.082;37.926;2022-09-24T05:40:13;1.77;;;0.80;;
71696;SDS011;59528;59.082;37.926;2022-09-24T05:43:00;2.53;;;1.00;;
71696;SDS011;59528;59.082;37.926;2022-09-24T05:45:26;1.57;;;0.70;;
71696;SDS011;59528;59.082;37.926;2022-09-24T05:47:52;2.90;;;0.80;;
71696;SDS011;59528;59.082;37.926;2022-09-24T05:50:17;2.50;;;0.97;;
71696;SDS011;59528;59.082;37.926;2022-09-24T05:52:43;3.43;;;1.00;;
71696;SDS011;59528;59.082;37.926;2022-09-24T05:55:09;1.40;;;0.90;;
71696;SDS011;59528;59.082;37.926;2022-09-24T05:57:34;6.00;;;1.10;;
71696;SDS011;59528;59.082;37.926;2022-09-24T06:00:00;2.97;;;1.00;;
71696;SDS011;59528;59.082;37.926;2022-09-24T06:02:26;3.43;;;0.90;;
71696;SDS011;59528;59.082;37.926;2022-09-24T06:04:51;2.73;;;0.80;;
71696;SDS011;59528;59.082;37.926;2022-09-24T06:07:17;5.17;;;1.27;;
71696;SDS011;59528;59.082;37.926;2022-09-24T06:09:42;1.83;;;0.77;;
71696;SDS011;59528;59.082;37.926;2022-09-24T06:12:08;1.60;;;0.87;;
71696;SDS011;59528;59.082;37.926;2022-09-24T06:14:38;2.00;;;1.27;;
71696;SDS011;59528;59.082;37.926;2022-09-24T06:17:04;2.73;;;1.10;;
71696;SDS011;59528;59.082;37.926;2022-09-24T06:19:30;2.10;;;1.00;;
71696;SDS011;59528;59.082;37.926;2022-09-24T06:21:55;1.67;;;1.10;;
71696;SDS011;59528;59.082;37.926;2022-09-24T06:24:21;3.20;;;1.30;;
71696;SDS011;59528;59.082;37.926;2022-09-24T06:26:47;4.90;;;1.10;;
71696;SDS011;59528;59.082;37.926;2022-09-24T06:29:13;2.83;;;1.10;;
71696;SDS011;59528;59.082;37.926;2022-09-24T06:31:40;5.47;;;1.30;;
71696;SDS011;59528;59.082;37.926;2022-09-24T06:34:05;2.73;;;1.30;;
71696;SDS011;59528;59.082;37.926;2022-09-24T06:36:31;2.30;;;1.07;;
71696;SDS011;59528;59.082;37.926;2022-09-24T06:38:57;1.73;;;1.10;;
71696;SDS011;59528;59.082;37.926;2022-09-24T06:41:23;2.87;;;1.27;;
71696;SDS011;59528;59.082;37.926;2022-09-24T06:43:48;3.93;;;1.40;;
71696;SDS011;59528;59.082;37.926;2022-09-24T06:46:14;3.63;;;1.30;;
71696;SDS011;59528;59.082;37.926;2022-09-24T06:48:40;2.77;;;1.00;;
71696;SDS011;59528;59.082;37.926;2022-09-24T06:51:07;3.37;;;1.47;;
71696;SDS011;59528;59.082;37.926;2022-09-24T06:53:32;2.53;;;1.40;;
71696;SDS011;59528;59.082;37.926;2022-09-24T06:55:58;2.97;;;1.43;;
71696;SDS011;59528;59.082;37.926;2022-09-24T06:58:27;4.77;;;1.50;;
71696;SDS011;59528;59.082;37.926;2022-09-24T07:00:57;3.53;;;1.60;;
71696;SDS011;59528;59.082;37.926;2022-09-24T07:03:24;3.30;;;1.30;;
71696;SDS011;59528;59.082;37.926;2022-09-24T07:05:50;2.73;;;1.30;;
71696;SDS011;59528;59.082;37.926;2022-09-24T07:08:15;3.27;;;1.67;;
71696;SDS011;59528;59.082;37.926;2022-09-24T07:10:44;4.17;;;1.30;;
71696;SDS011;59528;59.082;37.926;2022-09-24T07:13:11;2.37;;;1.23;;
71696;SDS011;59528;59.082;37.926;2022-09-24T07:15:37;3.57;;;1.57;;
71696;SDS011;59528;59.082;37.926;2022-09-24T07:18:02;4.00;;;1.83;;
71696;SDS011;59528;59.082;37.926;2022-09-24T07:20:28;2.63;;;1.67;;
71696;SDS011;59528;59.082;37.926;2022-09-24T07:22:54;3.00;;;1.27;;
71696;SDS011;59528;59.082;37.926;2022-09-24T07:25:20;5.30;;;1.60;;
71696;SDS011;59528;59.082;37.926;2022-09-24T07:27:46;3.70;;;1.40;;
71696;SDS011;59528;59.082;37.926;2022-09-24T07:30:11;3.50;;;1.30;;
71696;SDS011;59528;59.082;37.926;2022-09-24T07:32:37;4.43;;;1.43;;
71696;SDS011;59528;59.082;37.926;2022-09-24T07:35:03;5.70;;;2.23;;
71696;SDS011;59528;59.082;37.926;2022-09-24T07:37:29;3.67;;;1.47;;
71696;SDS011;59528;59.082;37.926;2022-09-24T07:39:57;5.20;;;1.57;;
71696;SDS011;59528;59.082;37.926;2022-09-24T07:42:22;6.03;;;1.97;;
71696;SDS011;59528;59.082;37.926;2022-09-24T07:44:49;4.17;;;1.70;;
71696;SDS011;59528;59.082;37.926;2022-09-24T07:47:15;9.17;;;1.87;;
71696;SDS011;59528;59.082;37.926;2022-09-24T07:49:41;3.40;;;1.63;;
71696;SDS011;59528;59.082;37.926;2022-09-24T07:52:07;4.77;;;1.90;;
71696;SDS011;59528;59.082;37.926;2022-09-24T07:54:32;4.63;;;1.97;;
71696;SDS011;59528;59.082;37.926;2022-09-24T07:56:58;5.53;;;1.77;;
71696;SDS011;59528;59.082;37.926;2022-09-24T07:59:25;6.43;;;1.80;;
71696;SDS011;59528;59.082;37.926;2022-09-24T08:01:51;3.27;;;1.50;;
71696;SDS011;59528;59.082;37.926;2022-09-24T08:04:17;4.90;;;1.73;;
71696;SDS011;59528;59.082;37.926;2022-09-24T08:06:42;4.03;;;1.73;;
71696;SDS011;59528;59.082;37.926;2022-09-24T08:09:08;2.83;;;1.57;;
71696;SDS011;59528;59.082;37.926;2022-09-24T08:11:34;9.67;;;2.13;;
71696;SDS011;59528;59.082;37.926;2022-09-24T08:14:13;4.10;;;2.10;;
71696;SDS011;59528;59.082;37.926;2022-09-24T08:16:39;2.97;;;1.70;;
71696;SDS011;59528;59.082;37.926;2022-09-24T08:19:05;4.93;;;1.80;;
71696;SDS011;59528;59.082;37.926;2022-09-24T08:21:31;4.50;;;1.73;;
71696;SDS011;59528;59.082;37.926;2022-09-24T08:24:00;8.13;;;2.73;;
71696;SDS011;59528;59.082;37.926;2022-09-24T08:26:26;2.53;;;1.70;;
71696;SDS011;59528;59.082;37.926;2022-09-24T08:28:53;4.40;;;2.00;;
71696;SDS011;59528;59.082;37.926;2022-09-24T08:31:19;3.53;;;1.90;;
71696;SDS011;59528;59.082;37.926;2022-09-24T08:33:44;2.93;;;2.20;;
71696;SDS011;59528;59.082;37.926;2022-09-24T08:36:15;4.03;;;1.77;;
71696;SDS011;59528;59.082;37.926;2022-09-24T08:38:41;4.33;;;1.57;;
71696;SDS011;59528;59.082;37.926;2022-09-24T08:46:15;4.67;;;1.97;;
71696;SDS011;59528;59.082;37.926;2022-09-24T08:49:00;4.13;;;2.00;;
71696;SDS011;59528;59.082;37.926;2022-09-24T08:51:27;2.93;;;1.73;;
71696;SDS011;59528;59.082;37.926;2022-09-24T08:53:57;5.13;;;1.80;;
71696;SDS011;59528;59.082;37.926;2022-09-24T08:56:26;5.60;;;1.97;;
71696;SDS011;59528;59.082;37.926;2022-09-24T08:59:01;7.10;;;1.73;;
71696;SDS011;59528;59.082;37.926;2022-09-24T09:03:54;5.40;;;1.63;;
71696;SDS011;59528;59.082;37.926;2022-09-24T09:06:54;2.77;;;1.67;;
71696;SDS011;59528;59.082;37.926;2022-09-24T09:12:03;4.97;;;2.07;;
71696;SDS011;59528;59.082;37.926;2022-09-24T09:16:54;2.77;;;1.50;;
71696;SDS011;59528;59.082;37.926;2022-09-24T09:19:25;3.63;;;1.80;;
71696;SDS011;59528;59.082;37.926;2022-09-24T09:21:53;3.30;;;1.77;;
71696;SDS011;59528;59.082;37.926;2022-09-24T09:24:41;2.20;;;1.60;;
71696;SDS011;59528;59.082;37.926;2022-09-24T09:27:11;3.77;;;1.93;;
71696;SDS011;59528;59.082;37.926;2022-09-24T09:29:44;8.13;;;1.93;;
71696;SDS011;59528;59.082;37.926;2022-09-24T09:37:39;5.70;;;2.20;;
71696;SDS011;59528;59.082;37.926;2022-09-24T09:42:35;5.67;;;1.80;;
71696;SDS011;59528;59.082;37.926;2022-09-24T09:45:02;2.37;;;1.60;;
71696;SDS011;59528;59.082;37.926;2022-09-24T09:47:48;2.13;;;1.40;;
71696;SDS011;59528;59.082;37.926;2022-09-24T09:50:33;7.17;;;1.87;;
71696;SDS011;59528;59.082;37.926;2022-09-24T09:53:01;4.43;;;1.60;;
71696;SDS011;59528;59.082;37.926;2022-09-24T09:55:30;3.33;;;1.50;;
71696;SDS011;59528;59.082;37.926;2022-09-24T10:00:40;3.80;;;1.70;;
71696;SDS011;59528;59.082;37.926;2022-09-24T10:03:19;2.10;;;1.23;;
71696;SDS011;59528;59.082;37.926;2022-09-24T10:08:37;4.43;;;1.97;;
71696;SDS011;59528;59.082;37.926;2022-09-24T10:11:03;2.47;;;1.60;;
71696;SDS011;59528;59.082;37.926;2022-09-24T10:13:29;2.77;;;1.53;;
71696;SDS011;59528;59.082;37.926;2022-09-24T10:15:57;3.00;;;1.63;;
71696;SDS011;59528;59.082;37.926;2022-09-24T10:20:49;4.40;;;1.70;;
71696;SDS011;59528;59.082;37.926;2022-09-24T10:23:17;3.23;;;1.33;;
71696;SDS011;59528;59.082;37.926;2022-09-24T10:25:54;4.03;;;1.60;;
71696;SDS011;59528;59.082;37.926;2022-09-24T10:28:22;4.40;;;1.50;;
71696;SDS011;59528;59.082;37.926;2022-09-24T10:31:10;3.43;;;1.57;;
71696;SDS011;59528;59.082;37.926;2022-09-24T10:33:40;2.63;;;1.37;;
71696;SDS011;59528;59.082;37.926;2022-09-24T10:36:18;3.00;;;1.40;;
71696;SDS011;59528;59.082;37.926;2022-09-24T10:38:44;2.13;;;1.60;;
71696;SDS011;59528;59.082;37.926;2022-09-24T10:41:14;2.20;;;1.27;;
71696;SDS011;59528;59.082;37.926;2022-09-24T10:43:48;3.27;;;1.43;;
71696;SDS011;59528;59.082;37.926;2022-09-24T10:56:37;2.60;;;1.60;;
71696;SDS011;59528;59.082;37.926;2022-09-24T11:09:32;2.00;;;1.27;;
71696;SDS011;59528;59.082;37.926;2022-09-24T11:14:32;1.60;;;1.27;;
71696;SDS011;59528;59.082;37.926;2022-09-24T11:17:15;2.33;;;1.10;;
71696;SDS011;59528;59.082;37.926;2022-09-24T11:30:33;2.07;;;1.00;;
71696;SDS011;59528;59.082;37.926;2022-09-24T11:38:51;2.00;;;0.90;;
71696;SDS011;59528;59.082;37.926;2022-09-24T11:46:46;1.30;;;1.00;;
71696;SDS011;59528;59.082;37.926;2022-09-24T11:52:02;2.23;;;1.10;;
71696;SDS011;59528;59.082;37.926;2022-09-24T11:56:57;2.33;;;1.00;;
71696;SDS011;59528;59.082;37.926;2022-09-24T12:01:59;2.47;;;1.10;;
71696;SDS011;59528;59.082;37.926;2022-09-24T12:10:42;1.30;;;1.00;;
71696;SDS011;59528;59.082;37.926;2022-09-24T12:12:42;2.53;;;1.20;;
71696;SDS011;59528;59.082;37.926;2022-09-24T12:15:13;1.07;;;0.90;;
71696;SDS011;59528;59.082;37.926;2022-09-24T12:17:44;2.93;;;1.20;;
71696;SDS011;59528;59.082;37.926;2022-09-24T12:22:46;2.03;;;1.20;;
71696;SDS011;59528;59.082;37.926;2022-09-24T12:25:14;1.93;;;1.10;;
71696;SDS011;59528;59.082;37.926;2022-09-24T12:27:40;1.13;;;0.93;;
71696;SDS011;59528;59.082;37.926;2022-09-24T12:30:16;1.80;;;1.00;;
71696;SDS011;59528;59.082;37.926;2022-09-24T12:44:10;3.07;;;0.90;;
71696;SDS011;59528;59.082;37.926;2022-09-24T12:46:03;1.57;;;1.07;;
71696;SDS011;59528;59.082;37.926;2022-09-24T12:48:30;1.63;;;1.00;;
71696;SDS011;59528;59.082;37.926;2022-09-24T12:50:59;1.67;;;1.00;;
71696;SDS011;59528;59.082;37.926;2022-09-24T12:53:28;1.97;;;1.10;;
71696;SDS011;59528;59.082;37.926;2022-09-24T12:55:57;1.40;;;1.23;;
71696;SDS011;59528;59.082;37.926;2022-09-24T12:58:35;1.80;;;0.90;;
71696;SDS011;59528;59.082;37.926;2022-09-24T13:01:06;1.80;;;1.10;;
71696;SDS011;59528;59.082;37.926;2022-09-24T13:03:34;1.90;;;1.13;;
71696;SDS011;59528;59.082;37.926;2022-09-24T13:06:01;1.50;;;1.23;;
71696;SDS011;59528;59.082;37.926;2022-09-24T13:08:37;1.20;;;1.00;;
71696;SDS011;59528;59.082;37.926;2022-09-24T13:11:04;1.93;;;1.20;;
71696;SDS011;59528;59.082;37.926;2022-09-24T13:13:35;3.30;;;1.07;;
71696;SDS011;59528;59.082;37.926;2022-09-24T13:18:26;1.50;;;1.03;;
71696;SDS011;59528;59.082;37.926;2022-09-24T13:20:59;5.47;;;1.27;;
71696;SDS011;59528;59.082;37.926;2022-09-24T13:25:54;2.10;;;0.90;;
71696;SDS011;59528;59.082;37.926;2022-09-24T13:28:22;1.77;;;1.10;;
71696;SDS011;59528;59.082;37.926;2022-09-24T13:31:07;2.07;;;0.90;;
71696;SDS011;59528;59.082;37.926;2022-09-24T13:33:44;2.97;;;1.13;;
71696;SDS011;59528;59.082;37.926;2022-09-24T13:38:37;1.17;;;0.73;;
71696;SDS011;59528;59.082;37.926;2022-09-24T13:41:23;1.30;;;0.90;;
71696;SDS011;59528;59.082;37.926;2022-09-24T13:43:51;1.57;;;1.10;;
71696;SDS011;59528;59.082;37.926;2022-09-24T13:46:19;1.57;;;1.00;;
71696;SDS011;59528;59.082;37.926;2022-09-24T13:48:50;1.20;;;1.10;;
71696;SDS011;59528;59.082;37.926;2022-09-24T13:51:16;1.50;;;1.00;;
71696;SDS011;59528;59.082;37.926;2022-09-24T13:53:49;1.60;;;1.00;;
71696;SDS011;59528;59.082;37.926;2022-09-24T13:56:17;1.53;;;0.90;;
71696;SDS011;59528;59.082;37.926;2022-09-24T13:58:44;0.90;;;0.73;;
71696;SDS011;59528;59.082;37.926;2022-09-24T14:01:11;1.30;;;0.83;;
71696;SDS011;59528;59.082;37.926;2022-09-24T14:03:38;1.27;;;0.90;;
71696;SDS011;59528;59.082;37.926;2022-09-24T14:06:15;2.23;;;1.03;;
71696;SDS011;59528;59.082;37.926;2022-09-24T14:08:46;1.40;;;0.90;;
71696;SDS011;59528;59.082;37.926;2022-09-24T14:11:14;1.23;;;0.83;;
71696;SDS011;59528;59.082;37.926;2022-09-24T14:13:40;1.50;;;0.90;;
71696;SDS011;59528;59.082;37.926;2022-09-24T14:16:13;1.23;;;0.80;;
71696;SDS011;59528;59.082;37.926;2022-09-24T14:18:40;1.00;;;0.90;;
71696;SDS011;59528;59.082;37.926;2022-09-24T14:21:22;1.33;;;0.80;;
71696;SDS011;59528;59.082;37.926;2022-09-24T14:26:16;0.87;;;0.73;;
71696;SDS011;59528;59.082;37.926;2022-09-24T14:28:44;1.27;;;0.83;;
71696;SDS011;59528;59.082;37.926;2022-09-24T14:31:10;2.37;;;0.80;;
71696;SDS011;59528;59.082;37.926;2022-09-24T14:33:35;1.90;;;1.00;;
71696;SDS011;59528;59.082;37.926;2022-09-24T14:36:01;2.47;;;1.10;;
71696;SDS011;59528;59.082;37.926;2022-09-24T14:38:31;2.07;;;1.10;;
71696;SDS011;59528;59.082;37.926;2022-09-24T14:41:03;2.77;;;0.90;;
71696;SDS011;59528;59.082;37.926;2022-09-24T14:43:52;1.53;;;1.03;;
71696;SDS011;59528;59.082;37.926;2022-09-24T14:46:22;1.03;;;0.80;;
71696;SDS011;59528;59.082;37.926;2022-09-24T14:48:49;1.30;;;1.10;;
71696;SDS011;59528;59.082;37.926;2022-09-24T14:51:21;2.10;;;0.80;;
71696;SDS011;59528;59.082;37.926;2022-09-24T14:53:55;2.27;;;0.93;;
71696;SDS011;59528;59.082;37.926;2022-09-24T14:56:28;1.73;;;1.00;;
71696;SDS011;59528;59.082;37.926;2022-09-24T14:58:54;1.60;;;1.00;;
71696;SDS011;59528;59.082;37.926;2022-09-24T15:01:20;3.20;;;1.03;;
71696;SDS011;59528;59.082;37.926;2022-09-24T15:03:51;2.47;;;0.83;;
71696;SDS011;59528;59.082;37.926;2022-09-24T15:08:42;1.17;;;0.63;;
71696;SDS011;59528;59.082;37.926;2022-09-24T15:11:13;1.40;;;0.90;;
71696;SDS011;59528;59.082;37.926;2022-09-24T15:13:40;2.70;;;0.80;;
71696;SDS011;59528;59.082;37.926;2022-09-24T15:16:14;1.40;;;0.90;;
71696;SDS011;59528;59.082;37.926;2022-09-24T15:18:41;1.50;;;0.63;;
71696;SDS011;59528;59.082;37.926;2022-09-24T15:21:07;0.93;;;0.70;;
71696;SDS011;59528;59.082;37.926;2022-09-24T15:23:35;2.90;;;0.90;;
71696;SDS011;59528;59.082;37.926;2022-09-24T15:26:01;1.03;;;0.70;;
71696;SDS011;59528;59.082;37.926;2022-09-24T15:28:26;1.07;;;0.70;;
71696;SDS011;59528;59.082;37.926;2022-09-24T15:30:54;1.53;;;0.80;;
71696;SDS011;59528;59.082;37.926;2022-09-24T15:33:20;1.77;;;0.70;;
71696;SDS011;59528;59.082;37.926;2022-09-24T15:35:45;1.20;;;0.87;;
71696;SDS011;59528;59.082;37.926;2022-09-24T15:38:12;1.27;;;0.63;;
71696;SDS011;59528;59.082;37.926;2022-09-24T15:40:39;1.60;;;0.87;;
71696;SDS011;59528;59.082;37.926;2022-09-24T15:43:08;0.87;;;0.80;;
71696;SDS011;59528;59.082;37.926;2022-09-24T15:45:37;1.10;;;0.47;;
71696;SDS011;59528;59.082;37.926;2022-09-24T15:48:03;1.50;;;0.70;;
71696;SDS011;59528;59.082;37.926;2022-09-24T15:50:28;0.77;;;0.50;;
71696;SDS011;59528;59.082;37.926;2022-09-24T15:52:58;0.67;;;0.60;;
71696;SDS011;59528;59.082;37.926;2022-09-24T15:55:25;0.83;;;0.60;;
71696;SDS011;59528;59.082;37.926;2022-09-24T15:57:50;1.57;;;0.70;;
71696;SDS011;59528;59.082;37.926;2022-09-24T16:00:17;1.40;;;0.87;;
71696;SDS011;59528;59.082;37.926;2022-09-24T16:02:46;1.53;;;0.70;;
71696;SDS011;59528;59.082;37.926;2022-09-24T16:05:14;1.00;;;0.60;;
71696;SDS011;59528;59.082;37.926;2022-09-24T16:07:40;1.10;;;0.57;;
71696;SDS011;59528;59.082;37.926;2022-09-24T16:10:06;1.40;;;0.70;;
71696;SDS011;59528;59.082;37.926;2022-09-24T16:12:32;1.90;;;0.73;;
71696;SDS011;59528;59.082;37.926;2022-09-24T16:14:57;1.00;;;0.60;;
71696;SDS011;59528;59.082;37.926;2022-09-24T16:17:25;1.77;;;0.50;;
71696;SDS011;59528;59.082;37.926;2022-09-24T16:19:51;0.70;;;0.70;;
71696;SDS011;59528;59.082;37.926;2022-09-24T16:22:16;0.73;;;0.50;;
71696;SDS011;59528;59.082;37.926;2022-09-24T16:24:42;0.87;;;0.50;;
71696;SDS011;59528;59.082;37.926;2022-09-24T16:27:08;1.80;;;0.50;;
71696;SDS011;59528;59.082;37.926;2022-09-24T16:29:33;2.03;;;0.50;;
71696;SDS011;59528;59.082;37.926;2022-09-24T16:31:59;0.57;;;0.47;;
71696;SDS011;59528;59.082;37.926;2022-09-24T16:34:26;1.00;;;0.60;;
71696;SDS011;59528;59.082;37.926;2022-09-24T16:36:52;0.50;;;0.40;;
71696;SDS011;59528;59.082;37.926;2022-09-24T16:39:17;0.67;;;0.50;;
71696;SDS011;59528;59.082;37.926;2022-09-24T16:41:46;1.60;;;0.50;;
71696;SDS011;59528;59.082;37.926;2022-09-24T16:44:12;1.17;;;0.60;;
71696;SDS011;59528;59.082;37.926;2022-09-24T16:46:39;1.00;;;0.63;;
71696;SDS011;59528;59.082;37.926;2022-09-24T16:49:05;0.63;;;0.43;;
71696;SDS011;59528;59.082;37.926;2022-09-24T16:51:31;0.33;;;0.30;;